Time;durP1;ratioP1;P1;durP2;ratioP2;P2;SDS_P1;SDS_P2;PMS_P1;PMS_P2;Temp;Humidity;BMP_temperature;BMP_pressure;BME280_temperature;BME280_humidity;BME280_pressure;Samples;Min_cycle;Max_cycle;Signal;HPM_P1;HPM_P2
2021/07/18 00:01:49;;;;;;;;;;;20.30;68.00;;;;;;500008;237;1227;-70
2021/07/18 00:03:50;;;;;;;;;;;20.30;68.00;;;;;;500405;237;1185;-70
2021/07/18 00:05:51;;;;;;;;;;;20.40;68.10;;;;;;500426;237;1138;-70
2021/07/18 00:07:53;;;;;;;;;;;20.40;68.00;;;;;;500414;237;1243;-70
2021/07/18 00:09:54;;;;;;;;;;;20.30;68.00;;;;;;500315;237;1125;-70
2021/07/18 00:11:56;;;;;;;;;;;20.30;68.00;;;;;;500187;237;1397;-70
2021/07/18 00:13:57;;;;;;;;;;;20.30;68.00;;;;;;500429;237;1097;-70
2021/07/18 00:15:58;;;;;;;;;;;20.30;68.10;;;;;;500461;237;2183;-70
2021/07/18 00:18:00;;;;;;;;;;;20.30;68.20;;;;;;500325;237;1199;-70
2021/07/18 00:20:01;;;;;;;;;;;20.30;68.20;;;;;;500431;237;1041;-70
2021/07/18 00:22:02;;;;;;;;;;;20.30;68.20;;;;;;500366;237;1223;-70
2021/07/18 00:24:04;;;;;;;;;;;20.30;68.20;;;;;;500338;237;1096;-70
2021/07/18 00:26:05;;;;;;;;;;;20.30;68.30;;;;;;500357;237;1236;-70
2021/07/18 00:28:06;;;;;;;;;;;20.30;68.30;;;;;;500389;237;1088;-70
2021/07/18 00:30:08;;;;;;;;;;;20.20;68.20;;;;;;500415;237;1059;-70
2021/07/18 00:32:09;;;;;;;;;;;20.20;68.30;;;;;;500344;237;1125;-69
2021/07/18 00:34:10;;;;;;;;;;;20.20;68.30;;;;;;500192;237;1313;-69
2021/07/18 00:36:12;;;;;;;;;;;20.30;68.40;;;;;;500337;237;2156;-70
2021/07/18 00:38:13;;;;;;;;;;;20.30;68.30;;;;;;500348;237;943;-70
2021/07/18 00:40:14;;;;;;;;;;;20.30;68.30;;;;;;500468;237;954;-69
2021/07/18 00:42:16;;;;;;;;;;;20.30;68.30;;;;;;500285;237;1060;-70
2021/07/18 00:44:17;;;;;;;;;;;20.30;68.30;;;;;;500402;237;1051;-69
2021/07/18 00:46:18;;;;;;;;;;;20.30;68.30;;;;;;500316;237;1387;-70
2021/07/18 00:48:20;;;;;;;;;;;20.20;68.30;;;;;;500415;237;1179;-70
2021/07/18 00:50:21;;;;;;;;;;;20.30;68.30;;;;;;500287;237;1053;-70
2021/07/18 00:52:22;;;;;;;;;;;20.30;68.30;;;;;;500232;237;1146;-70
2021/07/18 00:54:24;;;;;;;;;;;20.30;68.30;;;;;;500493;237;1031;-70
2021/07/18 00:56:25;;;;;;;;;;;20.30;68.30;;;;;;500359;237;2124;-70
2021/07/18 00:58:26;;;;;;;;;;;20.30;68.30;;;;;;500295;237;1009;-70
2021/07/18 01:00:28;;;;;;;;;;;20.30;68.30;;;;;;500226;237;1054;-70
2021/07/18 01:02:29;;;;;;;;;;;20.30;68.30;;;;;;500375;237;1226;-70
2021/07/18 01:04:30;;;;;;;;;;;20.30;68.40;;;;;;500442;237;1138;-70
2021/07/18 01:06:32;;;;;;;;;;;20.30;68.40;;;;;;500395;237;1168;-70
2021/07/18 01:08:33;;;;;;;;;;;20.30;68.40;;;;;;500387;237;1098;-70
2021/07/18 01:10:34;;;;;;;;;;;20.30;68.30;;;;;;500517;237;1064;-70
2021/07/18 01:12:36;;;;;;;;;;;20.30;68.30;;;;;;500187;237;1228;-70
2021/07/18 01:14:37;;;;;;;;;;;20.30;68.30;;;;;;500444;237;1037;-70
2021/07/18 01:16:38;;;;;;;;;;;20.30;68.40;;;;;;500322;237;2196;-70
2021/07/18 01:18:40;;;;;;;;;;;20.30;68.40;;;;;;500433;237;1152;-70
2021/07/18 01:20:41;;;;;;;;;;;20.30;68.40;;;;;;500403;237;1044;-70
2021/07/18 01:22:42;;;;;;;;;;;20.30;68.30;;;;;;500026;237;1056;-70
2021/07/18 01:24:44;;;;;;;;;;;20.40;68.30;;;;;;500334;237;999;-70
2021/07/18 01:26:45;;;;;;;;;;;20.30;68.30;;;;;;500319;237;1238;-70
2021/07/18 01:28:46;;;;;;;;;;;20.40;68.40;;;;;;500473;237;1144;-70
2021/07/18 01:30:48;;;;;;;;;;;20.30;68.30;;;;;;500351;237;1199;-70
2021/07/18 01:32:49;;;;;;;;;;;20.30;68.30;;;;;;500341;237;1201;-70
2021/07/18 01:34:50;;;;;;;;;;;20.30;68.50;;;;;;500416;237;1181;-70
2021/07/18 01:36:52;;;;;;;;;;;20.30;68.40;;;;;;500330;237;2136;-70
2021/07/18 01:38:53;;;;;;;;;;;20.30;68.40;;;;;;500304;237;1020;-70
2021/07/18 01:40:54;;;;;;;;;;;20.30;68.30;;;;;;500243;237;1221;-70
2021/07/18 01:42:55;;;;;;;;;;;20.30;68.40;;;;;;500386;237;1202;-70
2021/07/18 01:44:57;;;;;;;;;;;20.30;68.40;;;;;;500341;237;1156;-70
2021/07/18 01:46:58;;;;;;;;;;;20.30;68.40;;;;;;500303;237;1181;-70
2021/07/18 01:48:59;;;;;;;;;;;20.30;68.50;;;;;;500063;237;1160;-70
2021/07/18 01:51:01;;;;;;;;;;;20.30;68.50;;;;;;500381;237;1185;-70
2021/07/18 01:53:02;;;;;;;;;;;20.30;68.40;;;;;;500425;237;1112;-69
2021/07/18 01:55:04;;;;;;;;;;;20.30;68.40;;;;;;500423;237;933;-69
2021/07/18 01:57:05;;;;;;;;;;;20.30;68.40;;;;;;500362;237;2137;-70
2021/07/18 01:59:06;;;;;;;;;;;20.30;68.50;;;;;;500400;237;1086;-70
2021/07/18 02:01:08;;;;;;;;;;;20.30;68.40;;;;;;500405;237;1183;-70
2021/07/18 02:03:09;;;;;;;;;;;20.20;68.40;;;;;;500349;237;1173;-70
2021/07/18 02:05:10;;;;;;;;;;;20.20;68.50;;;;;;500434;237;1146;-70
2021/07/18 02:07:12;;;;;;;;;;;20.20;68.50;;;;;;500357;237;1181;-70
2021/07/18 02:09:13;;;;;;;;;;;20.20;68.50;;;;;;500403;237;1092;-70
2021/07/18 02:11:14;;;;;;;;;;;20.20;68.50;;;;;;500254;237;1178;-70
2021/07/18 02:13:16;;;;;;;;;;;20.30;68.50;;;;;;500301;237;1100;-70
2021/07/18 02:15:18;;;;;;;;;;;20.30;68.40;;;;;;500378;237;1036;-70
2021/07/18 02:17:19;;;;;;;;;;;20.30;68.30;;;;;;500360;237;2179;-69
2021/07/18 02:19:20;;;;;;;;;;;20.20;68.30;;;;;;500455;237;1141;-69
2021/07/18 02:21:22;;;;;;;;;;;20.20;68.40;;;;;;500483;237;1065;-69
2021/07/18 02:23:23;;;;;;;;;;;20.20;68.40;;;;;;500361;237;1523;-70
2021/07/18 02:25:25;;;;;;;;;;;20.20;68.40;;;;;;500307;237;1143;-69
2021/07/18 02:27:26;;;;;;;;;;;20.20;68.40;;;;;;500227;237;1147;-69
2021/07/18 02:29:28;;;;;;;;;;;20.30;68.40;;;;;;500120;237;1060;-69
2021/07/18 02:31:29;;;;;;;;;;;20.30;68.30;;;;;;500334;237;1171;-69
2021/07/18 02:33:30;;;;;;;;;;;20.20;68.30;;;;;;500370;237;1013;-69
2021/07/18 02:35:32;;;;;;;;;;;20.30;68.30;;;;;;500407;237;1183;-70
2021/07/18 02:37:33;;;;;;;;;;;20.20;68.30;;;;;;500024;237;2117;-70
2021/07/18 02:39:34;;;;;;;;;;;20.20;68.40;;;;;;500230;237;1066;-70
2021/07/18 02:41:36;;;;;;;;;;;20.20;68.40;;;;;;500312;237;1212;-70
2021/07/18 02:43:37;;;;;;;;;;;20.20;68.40;;;;;;500267;237;1077;-70
2021/07/18 02:45:38;;;;;;;;;;;20.20;68.40;;;;;;500408;237;1068;-69
2021/07/18 02:47:40;;;;;;;;;;;20.20;68.40;;;;;;500355;237;1089;-70
2021/07/18 02:49:41;;;;;;;;;;;20.20;68.30;;;;;;500456;237;1141;-70
2021/07/18 02:51:42;;;;;;;;;;;20.20;68.30;;;;;;500237;237;1208;-70
2021/07/18 02:53:44;;;;;;;;;;;20.20;68.30;;;;;;500519;237;1168;-70
2021/07/18 02:55:45;;;;;;;;;;;20.20;68.30;;;;;;500398;237;1949;-70
2021/07/18 02:57:46;;;;;;;;;;;20.20;68.30;;;;;;500343;237;2188;-70
2021/07/18 02:59:47;;;;;;;;;;;20.20;68.30;;;;;;500432;237;932;-70
2021/07/18 03:01:49;;;;;;;;;;;20.20;68.30;;;;;;500335;237;1229;-70
2021/07/18 03:03:50;;;;;;;;;;;20.20;68.20;;;;;;500355;237;1070;-70
2021/07/18 03:05:51;;;;;;;;;;;20.20;68.20;;;;;;500332;237;1232;-70
2021/07/18 03:07:53;;;;;;;;;;;20.20;68.20;;;;;;500322;237;989;-70
2021/07/18 03:09:54;;;;;;;;;;;20.30;68.20;;;;;;500448;237;1165;-69
2021/07/18 03:11:55;;;;;;;;;;;20.20;68.10;;;;;;500341;237;1293;-70
2021/07/18 03:13:57;;;;;;;;;;;20.20;68.20;;;;;;500329;237;1030;-70
2021/07/18 03:15:58;;;;;;;;;;;20.20;68.20;;;;;;500266;237;1227;-70
2021/07/18 03:18:01;;;;;;;;;;;20.20;68.20;;;;;;500295;237;2187;-70
2021/07/18 03:20:02;;;;;;;;;;;20.30;68.20;;;;;;500345;238;1461;-70
2021/07/18 03:22:02;;;;;;;;;;;20.30;68.20;;;;;;500360;238;1448;-70
2021/07/18 03:24:03;;;;;;;;;;;20.30;68.10;;;;;;500398;237;1080;-70
2021/07/18 03:26:05;;;;;;;;;;;20.20;68.10;;;;;;500528;237;1258;-70
2021/07/18 03:28:06;;;;;;;;;;;20.20;68.10;;;;;;500352;237;1010;-70
2021/07/18 03:30:07;;;;;;;;;;;20.20;68.20;;;;;;500422;237;970;-70
2021/07/18 03:32:09;;;;;;;;;;;20.20;68.20;;;;;;500417;237;1291;-70
2021/07/18 03:34:10;;;;;;;;;;;20.20;68.20;;;;;;500412;237;1074;-70
2021/07/18 03:36:11;;;;;;;;;;;20.20;68.10;;;;;;500418;237;2148;-70
2021/07/18 03:38:13;;;;;;;;;;;20.20;68.10;;;;;;500415;237;1082;-70
2021/07/18 03:40:14;;;;;;;;;;;20.20;68.10;;;;;;500474;237;1076;-70
2021/07/18 03:42:15;;;;;;;;;;;20.20;68.20;;;;;;500341;237;1271;-69
2021/07/18 03:44:17;;;;;;;;;;;20.20;68.20;;;;;;500411;237;1031;-70
2021/07/18 03:46:18;;;;;;;;;;;20.20;68.20;;;;;;500525;237;1202;-70
2021/07/18 03:48:19;;;;;;;;;;;20.20;68.20;;;;;;500407;237;1177;-70
2021/07/18 03:50:22;;;;;;;;;;;20.20;68.10;;;;;;500480;237;1167;-70
2021/07/18 03:52:22;;;;;;;;;;;20.20;68.00;;;;;;500319;238;1409;-70
2021/07/18 03:54:23;;;;;;;;;;;20.20;68.10;;;;;;500433;237;1003;-70
2021/07/18 03:56:24;;;;;;;;;;;20.20;68.10;;;;;;500375;237;2193;-69
2021/07/18 03:58:26;;;;;;;;;;;20.20;68.10;;;;;;500444;237;1074;-69
2021/07/18 04:00:27;;;;;;;;;;;20.20;68.20;;;;;;500406;237;957;-69
2021/07/18 04:02:28;;;;;;;;;;;20.10;68.10;;;;;;500401;237;1071;-69
2021/07/18 04:04:33;;;;;;;;;;;20.20;68.20;;;;;;500382;237;1008;-70
2021/07/18 04:06:31;;;;;;;;;;;20.20;68.00;;;;;;500244;238;1277;-70
2021/07/18 04:08:32;;;;;;;;;;;20.20;68.00;;;;;;500423;237;1189;-69
2021/07/18 04:10:34;;;;;;;;;;;20.20;67.90;;;;;;500401;237;981;-69
2021/07/18 04:12:35;;;;;;;;;;;20.20;68.00;;;;;;500384;237;1211;-69
2021/07/18 04:14:36;;;;;;;;;;;20.20;68.00;;;;;;500474;237;1028;-70
2021/07/18 04:16:38;;;;;;;;;;;20.20;68.00;;;;;;500378;235;2167;-70
2021/07/18 04:18:39;;;;;;;;;;;20.20;68.00;;;;;;500430;237;1222;-69
2021/07/18 04:20:40;;;;;;;;;;;20.20;68.00;;;;;;500421;237;1346;-70
2021/07/18 04:22:42;;;;;;;;;;;20.20;67.90;;;;;;500381;237;1096;-70
2021/07/18 04:24:43;;;;;;;;;;;20.20;67.90;;;;;;500407;237;957;-70
2021/07/18 04:26:44;;;;;;;;;;;20.20;67.90;;;;;;500420;237;1077;-70
2021/07/18 04:28:46;;;;;;;;;;;20.20;67.90;;;;;;500381;237;1078;-70
2021/07/18 04:30:47;;;;;;;;;;;20.20;67.90;;;;;;500380;237;1111;-70
2021/07/18 04:32:49;;;;;;;;;;;20.20;68.00;;;;;;500402;237;1137;-70
2021/07/18 04:34:50;;;;;;;;;;;20.20;68.00;;;;;;500394;237;1354;-70
2021/07/18 04:36:51;;;;;;;;;;;20.20;68.00;;;;;;500360;237;2180;-70
2021/07/18 04:38:52;;;;;;;;;;;20.20;67.90;;;;;;500501;237;1037;-70
2021/07/18 04:40:54;;;;;;;;;;;20.20;67.80;;;;;;500290;237;1271;-70
2021/07/18 04:42:55;;;;;;;;;;;20.20;67.80;;;;;;500403;237;1099;-70
2021/07/18 04:44:56;;;;;;;;;;;20.20;67.80;;;;;;500393;237;983;-70
2021/07/18 04:46:58;;;;;;;;;;;20.10;67.70;;;;;;500360;237;1214;-70
2021/07/18 04:48:59;;;;;;;;;;;20.10;67.80;;;;;;500385;237;1119;-70
2021/07/18 04:51:00;;;;;;;;;;;20.10;67.80;;;;;;500339;237;1212;-70
2021/07/18 04:53:02;;;;;;;;;;;20.10;67.80;;;;;;500408;237;1252;-70
2021/07/18 04:55:03;;;;;;;;;;;20.10;67.80;;;;;;500351;237;1046;-71
2021/07/18 04:57:04;;;;;;;;;;;20.10;67.80;;;;;;500402;237;2171;-69
2021/07/18 04:59:05;;;;;;;;;;;20.10;67.80;;;;;;500376;237;1138;-69
2021/07/18 05:01:07;;;;;;;;;;;20.10;67.80;;;;;;500291;237;1202;-70
2021/07/18 05:03:08;;;;;;;;;;;20.10;67.80;;;;;;500399;237;1171;-70
2021/07/18 05:05:09;;;;;;;;;;;20.10;67.80;;;;;;500403;237;969;-70
2021/07/18 05:07:11;;;;;;;;;;;20.10;67.80;;;;;;500333;237;1158;-70
2021/07/18 05:09:12;;;;;;;;;;;20.10;67.70;;;;;;500453;237;1024;-70
2021/07/18 05:11:14;;;;;;;;;;;20.10;67.70;;;;;;500332;235;1085;-70
2021/07/18 05:13:15;;;;;;;;;;;20.10;67.70;;;;;;500381;237;1006;-70
2021/07/18 05:15:16;;;;;;;;;;;20.10;67.70;;;;;;500621;237;1034;-70
2021/07/18 05:17:17;;;;;;;;;;;20.10;67.70;;;;;;500210;237;2175;-70
2021/07/18 05:19:19;;;;;;;;;;;20.10;67.70;;;;;;500469;237;962;-70
2021/07/18 05:21:20;;;;;;;;;;;20.10;67.70;;;;;;500262;237;1217;-70
2021/07/18 05:23:21;;;;;;;;;;;20.10;67.60;;;;;;500469;237;945;-70
2021/07/18 05:25:23;;;;;;;;;;;20.10;67.60;;;;;;500465;237;1093;-70
2021/07/18 05:27:24;;;;;;;;;;;20.10;67.60;;;;;;500382;237;1104;-70
2021/07/18 05:29:25;;;;;;;;;;;20.10;67.60;;;;;;500488;237;1052;-70
2021/07/18 05:31:27;;;;;;;;;;;20.10;67.60;;;;;;500282;237;1217;-70
2021/07/18 05:33:28;;;;;;;;;;;20.10;67.70;;;;;;500380;237;991;-70
2021/07/18 05:35:29;;;;;;;;;;;20.10;67.70;;;;;;500334;237;1246;-70
2021/07/18 05:37:31;;;;;;;;;;;20.10;67.70;;;;;;500350;237;2151;-69
2021/07/18 05:39:32;;;;;;;;;;;20.20;67.70;;;;;;500406;237;1036;-70
2021/07/18 05:41:33;;;;;;;;;;;20.20;67.60;;;;;;500301;237;1266;-70
2021/07/18 05:43:35;;;;;;;;;;;20.20;67.50;;;;;;500444;237;990;-70
2021/07/18 05:45:36;;;;;;;;;;;20.20;67.50;;;;;;500371;237;1219;-70
2021/07/18 05:47:38;;;;;;;;;;;20.20;67.50;;;;;;500588;237;1062;-70
2021/07/18 05:49:39;;;;;;;;;;;20.20;67.60;;;;;;500440;237;918;-70
2021/07/18 05:51:40;;;;;;;;;;;20.10;67.60;;;;;;500337;237;1304;-70
2021/07/18 05:53:41;;;;;;;;;;;20.20;67.70;;;;;;500370;237;951;-70
2021/07/18 05:55:43;;;;;;;;;;;20.20;67.70;;;;;;500382;237;1217;-70
2021/07/18 05:57:44;;;;;;;;;;;20.20;67.60;;;;;;500292;237;2187;-70
2021/07/18 05:59:46;;;;;;;;;;;20.20;67.50;;;;;;500458;237;1159;-70
2021/07/18 06:01:48;;;;;;;;;;;20.20;67.50;;;;;;500278;237;1209;-70
2021/07/18 06:03:48;;;;;;;;;;;20.20;67.50;;;;;;500363;237;1414;-70
2021/07/18 06:05:50;;;;;;;;;;;20.20;67.50;;;;;;500316;237;1295;-70
2021/07/18 06:07:51;;;;;;;;;;;20.20;67.60;;;;;;500340;237;1155;-70
2021/07/18 06:09:52;;;;;;;;;;;20.20;67.70;;;;;;500439;237;967;-70
2021/07/18 06:11:54;;;;;;;;;;;20.20;67.70;;;;;;500319;237;1147;-70
2021/07/18 06:13:55;;;;;;;;;;;20.30;67.70;;;;;;500409;237;1074;-70
2021/07/18 06:15:56;;;;;;;;;;;20.20;67.60;;;;;;500301;237;1163;-70
2021/07/18 06:17:58;;;;;;;;;;;20.20;67.50;;;;;;500293;237;2184;-70
2021/07/18 06:19:59;;;;;;;;;;;20.20;67.50;;;;;;500446;237;1274;-70
2021/07/18 06:22:00;;;;;;;;;;;20.20;67.60;;;;;;500293;237;1140;-70
2021/07/18 06:24:02;;;;;;;;;;;20.20;67.60;;;;;;500386;237;1062;-70
2021/07/18 06:26:05;;;;;;;;;;;20.20;67.70;;;;;;500323;236;1122;-70
2021/07/18 06:28:04;;;;;;;;;;;20.20;67.70;;;;;;500270;238;1386;-70
2021/07/18 06:30:06;;;;;;;;;;;20.20;67.60;;;;;;500365;237;1018;-70
2021/07/18 06:32:07;;;;;;;;;;;20.20;67.70;;;;;;500356;237;1153;-70
2021/07/18 06:34:08;;;;;;;;;;;20.20;67.60;;;;;;500401;237;1059;-70
2021/07/18 06:36:09;;;;;;;;;;;20.20;67.60;;;;;;500346;237;1208;-70
2021/07/18 06:38:11;;;;;;;;;;;20.20;67.60;;;;;;500373;237;2192;-70
2021/07/18 06:40:12;;;;;;;;;;;20.10;67.60;;;;;;500529;237;1011;-70
2021/07/18 06:42:13;;;;;;;;;;;20.20;67.70;;;;;;500287;237;1133;-69
2021/07/18 06:44:15;;;;;;;;;;;20.10;67.60;;;;;;500350;237;1039;-69
2021/07/18 06:46:16;;;;;;;;;;;20.20;67.70;;;;;;500245;237;1154;-69
2021/07/18 06:48:17;;;;;;;;;;;20.20;67.60;;;;;;500346;237;1154;-69
2021/07/18 06:50:20;;;;;;;;;;;20.20;67.60;;;;;;500425;237;923;-70
2021/07/18 06:52:20;;;;;;;;;;;20.20;67.50;;;;;;500191;237;1344;-69
2021/07/18 06:54:21;;;;;;;;;;;20.20;67.60;;;;;;500366;237;1043;-70
2021/07/18 06:56:23;;;;;;;;;;;20.10;67.60;;;;;;500263;235;1226;-69
2021/07/18 06:58:24;;;;;;;;;;;20.10;67.60;;;;;;500325;237;2198;-69
2021/07/18 07:00:25;;;;;;;;;;;20.10;67.70;;;;;;500385;237;959;-69
2021/07/18 07:02:27;;;;;;;;;;;20.10;67.60;;;;;;500257;237;1104;-70
2021/07/18 07:04:28;;;;;;;;;;;20.10;67.60;;;;;;500446;237;1045;-70
2021/07/18 07:06:29;;;;;;;;;;;20.10;67.60;;;;;;500277;237;1042;-70
2021/07/18 07:08:31;;;;;;;;;;;20.10;67.60;;;;;;500518;237;1086;-70
2021/07/18 07:10:32;;;;;;;;;;;20.10;67.60;;;;;;500458;237;1349;-70
2021/07/18 07:12:33;;;;;;;;;;;20.10;67.60;;;;;;500344;237;1336;-70
2021/07/18 07:14:35;;;;;;;;;;;20.20;67.70;;;;;;500374;237;1051;-70
2021/07/18 07:16:36;;;;;;;;;;;20.20;67.70;;;;;;500267;238;1424;-70
2021/07/18 07:18:38;;;;;;;;;;;20.20;67.60;;;;;;500358;237;2195;-70
2021/07/18 07:20:39;;;;;;;;;;;20.20;67.60;;;;;;500426;237;1054;-70
2021/07/18 07:22:40;;;;;;;;;;;20.20;67.60;;;;;;500423;237;1106;-70
2021/07/18 07:24:42;;;;;;;;;;;20.20;67.60;;;;;;500457;237;1066;-70
2021/07/18 07:26:43;;;;;;;;;;;20.20;67.70;;;;;;500336;237;1127;-70
2021/07/18 07:28:44;;;;;;;;;;;20.10;67.70;;;;;;500447;237;1151;-70
2021/07/18 07:30:46;;;;;;;;;;;20.10;67.70;;;;;;500559;237;1078;-70
2021/07/18 07:32:47;;;;;;;;;;;20.10;67.70;;;;;;500316;237;1056;-70
2021/07/18 07:34:49;;;;;;;;;;;20.10;67.70;;;;;;500442;237;957;-70
2021/07/18 07:36:50;;;;;;;;;;;20.10;67.70;;;;;;500366;237;1171;-70
2021/07/18 07:38:51;;;;;;;;;;;20.20;67.70;;;;;;500456;237;2184;-70
2021/07/18 07:40:53;;;;;;;;;;;20.10;67.60;;;;;;500371;237;1183;-70
2021/07/18 07:42:54;;;;;;;;;;;20.10;67.70;;;;;;500184;237;1159;-70
2021/07/18 07:44:55;;;;;;;;;;;20.20;67.70;;;;;;500373;237;1040;-70
2021/07/18 07:46:57;;;;;;;;;;;20.20;67.60;;;;;;500276;237;1231;-70
2021/07/18 07:48:58;;;;;;;;;;;20.10;67.60;;;;;;500427;237;1111;-70
2021/07/18 07:50:59;;;;;;;;;;;20.10;67.70;;;;;;500366;237;1217;-70
2021/07/18 07:53:02;;;;;;;;;;;20.10;67.70;;;;;;500438;237;1046;-70
2021/07/18 07:55:02;;;;;;;;;;;20.10;67.70;;;;;;500291;238;1392;-70
2021/07/18 07:57:03;;;;;;;;;;;20.10;67.80;;;;;;500353;237;1226;-70
2021/07/18 07:59:05;;;;;;;;;;;20.10;67.80;;;;;;500538;237;2148;-70
2021/07/18 08:01:06;;;;;;;;;;;20.10;67.80;;;;;;500295;237;1162;-70
2021/07/18 08:03:09;;;;;;;;;;;20.10;67.80;;;;;;500353;237;1095;-70
2021/07/18 08:05:09;;;;;;;;;;;20.10;67.80;;;;;;500324;238;1426;-70
2021/07/18 08:07:10;;;;;;;;;;;20.10;67.80;;;;;;500360;237;1231;-70
2021/07/18 08:09:11;;;;;;;;;;;20.10;67.80;;;;;;500407;237;1214;-70
2021/07/18 08:11:12;;;;;;;;;;;20.10;67.80;;;;;;500254;237;1246;-70
2021/07/18 08:13:14;;;;;;;;;;;20.10;67.80;;;;;;500325;237;1128;-70
2021/07/18 08:15:15;;;;;;;;;;;20.10;67.80;;;;;;500391;237;955;-70
2021/07/18 08:17:18;;;;;;;;;;;20.10;67.80;;;;;;500384;237;1215;-70
2021/07/18 08:19:18;;;;;;;;;;;20.10;67.90;;;;;;500311;238;2175;-70
2021/07/18 08:21:19;;;;;;;;;;;20.10;67.90;;;;;;500460;237;1160;-70
2021/07/18 08:23:20;;;;;;;;;;;20.10;67.90;;;;;;500396;237;1123;-70
2021/07/18 08:25:22;;;;;;;;;;;20.10;67.90;;;;;;500394;237;988;-69
2021/07/18 08:27:23;;;;;;;;;;;20.10;67.90;;;;;;500337;237;1113;-69
2021/07/18 08:29:26;;;;;;;;;;;20.10;67.90;;;;;;500412;237;1172;-69
2021/07/18 08:31:26;;;;;;;;;;;20.10;67.90;;;;;;500131;235;1387;-69
2021/07/18 08:33:27;;;;;;;;;;;20.10;67.90;;;;;;500371;237;1029;-70
2021/07/18 08:35:28;;;;;;;;;;;20.10;67.80;;;;;;500331;238;1158;-70
2021/07/18 08:37:30;;;;;;;;;;;20.10;67.80;;;;;;500265;237;1196;-70
2021/07/18 08:39:31;;;;;;;;;;;20.10;67.80;;;;;;500479;237;2184;-70
2021/07/18 08:41:32;;;;;;;;;;;20.10;67.80;;;;;;500184;237;1180;-70
2021/07/18 08:43:34;;;;;;;;;;;20.10;67.80;;;;;;500244;237;1143;-70
2021/07/18 08:45:35;;;;;;;;;;;20.10;67.80;;;;;;500302;237;1104;-70
2021/07/18 08:47:36;;;;;;;;;;;20.10;67.80;;;;;;500290;237;1066;-70
2021/07/18 08:49:38;;;;;;;;;;;20.10;67.80;;;;;;500409;237;952;-70
2021/07/18 08:51:39;;;;;;;;;;;20.10;67.90;;;;;;500354;237;1198;-70
2021/07/18 08:53:40;;;;;;;;;;;20.10;67.90;;;;;;500371;237;1079;-70
2021/07/18 08:55:42;;;;;;;;;;;20.10;67.90;;;;;;500312;237;1236;-70
2021/07/18 08:57:43;;;;;;;;;;;20.10;67.90;;;;;;500296;237;1122;-70
2021/07/18 08:59:44;;;;;;;;;;;20.10;67.90;;;;;;500379;237;2187;-70
2021/07/18 09:01:46;;;;;;;;;;;20.10;68.00;;;;;;500297;236;1301;-69
2021/07/18 09:03:47;;;;;;;;;;;20.10;67.90;;;;;;500316;237;984;-69
2021/07/18 09:05:52;;;;;;;;;;;20.10;67.90;;;;;;500340;237;1201;-70
2021/07/18 09:07:50;;;;;;;;;;;20.10;67.90;;;;;;499998;238;1310;-70
2021/07/18 09:09:51;;;;;;;;;;;20.10;68.00;;;;;;500427;237;987;-70
2021/07/18 09:11:52;;;;;;;;;;;20.10;67.90;;;;;;500295;237;1145;-70
2021/07/18 09:13:53;;;;;;;;;;;20.10;67.90;;;;;;500328;237;1181;-70
2021/07/18 09:15:55;;;;;;;;;;;20.10;67.90;;;;;;500365;237;987;-70
2021/07/18 09:17:56;;;;;;;;;;;20.10;67.90;;;;;;500398;237;1241;-70
2021/07/18 09:20:00;;;;;;;;;;;20.10;68.00;;;;;;500564;237;2188;-70
2021/07/18 09:22:00;;;;;;;;;;;20.10;68.00;;;;;;500156;238;1416;-70
2021/07/18 09:24:01;;;;;;;;;;;20.10;68.00;;;;;;500377;237;1104;-70
2021/07/18 09:26:02;;;;;;;;;;;20.10;68.10;;;;;;500392;237;1148;-70
2021/07/18 09:28:03;;;;;;;;;;;20.10;68.10;;;;;;500399;237;1083;-70
2021/07/18 09:30:05;;;;;;;;;;;20.10;68.10;;;;;;500383;237;1189;-70
2021/07/18 09:32:06;;;;;;;;;;;20.10;68.00;;;;;;500288;237;1160;-70
2021/07/18 09:34:07;;;;;;;;;;;20.10;68.00;;;;;;500335;237;1128;-70
2021/07/18 09:36:09;;;;;;;;;;;20.10;68.00;;;;;;500422;237;1114;-70
2021/07/18 09:38:10;;;;;;;;;;;20.10;68.10;;;;;;500353;237;1110;-70
2021/07/18 09:40:11;;;;;;;;;;;20.10;68.10;;;;;;500403;237;2109;-70
2021/07/18 09:42:13;;;;;;;;;;;20.10;68.10;;;;;;500315;237;1172;-70
2021/07/18 09:44:14;;;;;;;;;;;20.10;68.10;;;;;;500295;237;1105;-70
2021/07/18 09:46:15;;;;;;;;;;;20.10;68.10;;;;;;500249;237;1166;-70
2021/07/18 09:48:17;;;;;;;;;;;20.10;68.20;;;;;;500349;237;1031;-70
2021/07/18 09:50:18;;;;;;;;;;;20.10;68.10;;;;;;500387;237;1031;-70
2021/07/18 09:52:20;;;;;;;;;;;20.10;68.10;;;;;;500301;237;1072;-70
2021/07/18 09:54:21;;;;;;;;;;;20.10;68.10;;;;;;500370;237;940;-72
2021/07/18 09:56:24;;;;;;;;;;;20.20;68.20;;;;;;500335;237;1170;-70
2021/07/18 09:58:23;;;;;;;;;;;20.10;68.20;;;;;;500187;238;1401;-70
2021/07/18 10:00:25;;;;;;;;;;;20.10;68.20;;;;;;500386;237;2108;-70
2021/07/18 10:02:26;;;;;;;;;;;20.10;68.20;;;;;;500301;237;1086;-70
2021/07/18 10:04:27;;;;;;;;;;;20.10;68.20;;;;;;500452;237;1029;-70
2021/07/18 10:06:29;;;;;;;;;;;20.10;68.20;;;;;;500266;237;1135;-70
2021/07/18 10:08:30;;;;;;;;;;;20.10;68.20;;;;;;500307;237;1112;-70
2021/07/18 10:10:31;;;;;;;;;;;20.10;68.20;;;;;;500353;237;991;-70
2021/07/18 10:12:33;;;;;;;;;;;20.10;68.20;;;;;;500229;237;1092;-70
2021/07/18 10:14:34;;;;;;;;;;;20.10;68.30;;;;;;500325;237;1149;-70
2021/07/18 10:16:35;;;;;;;;;;;20.10;68.30;;;;;;500376;237;1046;-70
2021/07/18 10:18:37;;;;;;;;;;;20.10;68.30;;;;;;500424;237;2176;-70
2021/07/18 10:20:38;;;;;;;;;;;20.10;68.30;;;;;;500368;237;1101;-70
2021/07/18 10:22:39;;;;;;;;;;;20.10;68.30;;;;;;500296;237;1129;-70
2021/07/18 10:24:41;;;;;;;;;;;20.10;68.30;;;;;;500380;237;943;-70
2021/07/18 10:26:42;;;;;;;;;;;20.10;68.30;;;;;;500337;237;1231;-70
2021/07/18 10:28:43;;;;;;;;;;;20.10;68.30;;;;;;500370;237;965;-70
2021/07/18 10:30:45;;;;;;;;;;;20.10;68.30;;;;;;500309;237;1218;-70
2021/07/18 10:32:46;;;;;;;;;;;20.10;68.30;;;;;;500339;237;1022;-70
2021/07/18 10:34:47;;;;;;;;;;;20.10;68.20;;;;;;500340;237;1078;-70
2021/07/18 10:36:48;;;;;;;;;;;20.10;68.20;;;;;;500262;237;1092;-70
2021/07/18 10:38:50;;;;;;;;;;;20.10;68.20;;;;;;500346;237;2128;-70
2021/07/18 10:40:51;;;;;;;;;;;20.10;68.30;;;;;;500296;237;1200;-70
2021/07/18 10:42:52;;;;;;;;;;;20.10;68.30;;;;;;500304;237;1129;-70
2021/07/18 10:44:54;;;;;;;;;;;20.10;68.30;;;;;;500308;237;1149;-70
2021/07/18 10:46:55;;;;;;;;;;;20.10;68.30;;;;;;500218;237;1219;-70
2021/07/18 10:48:56;;;;;;;;;;;20.10;68.30;;;;;;500298;237;1012;-70
2021/07/18 10:50:58;;;;;;;;;;;20.10;68.20;;;;;;500328;237;1166;-70
2021/07/18 10:52:59;;;;;;;;;;;20.20;68.30;;;;;;500262;237;1101;-70
2021/07/18 10:55:00;;;;;;;;;;;20.20;68.30;;;;;;500323;237;983;-70
2021/07/18 10:57:02;;;;;;;;;;;20.20;68.30;;;;;;500247;237;1311;-70
2021/07/18 10:59:03;;;;;;;;;;;20.10;68.30;;;;;;500293;237;2179;-70
2021/07/18 11:01:04;;;;;;;;;;;20.10;68.30;;;;;;500322;237;1185;-70
2021/07/18 11:03:06;;;;;;;;;;;20.10;68.40;;;;;;500325;237;1147;-70
2021/07/18 11:05:07;;;;;;;;;;;20.10;68.30;;;;;;500444;237;1120;-70
2021/07/18 11:07:08;;;;;;;;;;;20.10;68.40;;;;;;500265;237;1183;-70
2021/07/18 11:09:11;;;;;;;;;;;20.10;68.40;;;;;;500281;237;1035;-70
2021/07/18 11:11:12;;;;;;;;;;;20.10;68.40;;;;;;500291;237;1148;-70
2021/07/18 11:13:14;;;;;;;;;;;20.20;68.50;;;;;;500313;237;992;-70
2021/07/18 11:15:15;;;;;;;;;;;20.10;68.50;;;;;;500339;237;1496;-70
2021/07/18 11:17:17;;;;;;;;;;;20.20;68.50;;;;;;500290;235;1206;-70
2021/07/18 11:19:18;;;;;;;;;;;20.20;68.50;;;;;;500317;237;2140;-70
2021/07/18 11:21:19;;;;;;;;;;;20.20;68.60;;;;;;500359;237;1250;-70
2021/07/18 11:23:21;;;;;;;;;;;20.20;68.60;;;;;;500275;237;1138;-70
2021/07/18 11:25:22;;;;;;;;;;;20.20;68.60;;;;;;500362;237;966;-70
2021/07/18 11:27:23;;;;;;;;;;;20.20;68.60;;;;;;500418;237;1202;-70
2021/07/18 11:29:24;;;;;;;;;;;20.20;68.50;;;;;;500359;237;1083;-70
2021/07/18 11:31:26;;;;;;;;;;;20.20;68.60;;;;;;500357;237;1200;-70
2021/07/18 11:33:27;;;;;;;;;;;20.20;68.60;;;;;;500440;237;1105;-70
2021/07/18 11:35:28;;;;;;;;;;;20.20;68.60;;;;;;500263;237;1066;-70
2021/07/18 11:37:31;;;;;;;;;;;20.20;68.60;;;;;;500261;237;1131;-70
2021/07/18 11:39:31;;;;;;;;;;;20.20;68.60;;;;;;500246;238;2140;-70
2021/07/18 11:41:32;;;;;;;;;;;20.20;68.60;;;;;;500293;237;1065;-70
2021/07/18 11:43:34;;;;;;;;;;;20.20;68.60;;;;;;500292;237;1105;-70
2021/07/18 11:45:35;;;;;;;;;;;20.20;68.60;;;;;;500324;237;1110;-69
2021/07/18 11:47:37;;;;;;;;;;;20.20;68.70;;;;;;500325;237;1113;-69
2021/07/18 11:49:38;;;;;;;;;;;20.20;68.70;;;;;;500416;237;1090;-69
2021/07/18 11:51:39;;;;;;;;;;;20.20;68.60;;;;;;500328;237;1079;-69
2021/07/18 11:53:41;;;;;;;;;;;20.10;68.60;;;;;;500459;237;972;-69
2021/07/18 11:55:42;;;;;;;;;;;20.20;68.70;;;;;;500434;235;1224;-69
2021/07/18 11:57:43;;;;;;;;;;;20.20;68.70;;;;;;500291;237;1183;-69